createdAt,value
2017-01-21T00:01:06.678Z,0
2017-01-21T00:02:18.079Z,0
2017-01-21T00:03:29.469Z,0
2017-01-21T00:04:40.915Z,0
2017-01-21T00:05:52.310Z,0
2017-01-21T00:07:03.707Z,0
2017-01-21T00:08:15.106Z,0
2017-01-21T00:09:26.492Z,0
2017-01-21T00:10:37.944Z,0
2017-01-21T00:11:49.340Z,0
2017-01-21T00:13:00.744Z,0
2017-01-21T00:14:12.127Z,0
2017-01-21T00:15:23.524Z,0
2017-01-21T00:16:34.971Z,0
2017-01-21T00:17:46.368Z,0
2017-01-21T00:18:57.765Z,0
2017-01-21T00:20:09.175Z,0
2017-01-21T00:21:20.571Z,0
2017-01-21T00:22:32.014Z,0
2017-01-21T00:23:43.412Z,0
2017-01-21T00:24:55.016Z,0
2017-01-21T00:26:06.418Z,0
2017-01-21T00:27:17.810Z,0
2017-01-21T00:28:29.459Z,0
2017-01-21T00:29:40.855Z,0
2017-01-21T00:30:52.251Z,0
2017-01-21T00:32:03.645Z,0
2017-01-21T00:33:15.049Z,0
2017-01-21T00:34:26.490Z,0
2017-01-21T00:35:37.899Z,0
2017-01-21T00:36:49.299Z,0
2017-01-21T00:38:00.699Z,0
2017-01-21T00:39:12.298Z,0
2017-01-21T00:40:23.734Z,0
2017-01-21T00:41:35.132Z,0
2017-01-21T00:42:46.533Z,0
2017-01-21T00:43:57.929Z,0
2017-01-21T00:45:09.321Z,0
2017-01-21T00:46:20.764Z,0
2017-01-21T00:47:32.159Z,0
2017-01-21T00:48:43.557Z,0
2017-01-21T00:49:54.948Z,0
2017-01-21T00:51:06.343Z,0
2017-01-21T00:52:17.793Z,0
2017-01-21T00:53:29.388Z,0
2017-01-21T00:54:40.786Z,0
2017-01-21T00:55:52.183Z,0
2017-01-21T00:57:03.577Z,0
2017-01-21T00:58:15.025Z,0
2017-01-21T00:59:26.422Z,0
2017-01-21T01:00:38.012Z,0
2017-01-21T01:01:49.405Z,0
2017-01-21T01:03:00.815Z,0
2017-01-21T01:04:12.257Z,0
2017-01-21T01:05:23.656Z,0
2017-01-21T01:06:35.048Z,0
2017-01-21T01:07:46.444Z,0
2017-01-21T01:08:57.839Z,0
2017-01-21T01:10:09.283Z,0
2017-01-21T01:11:20.694Z,0
2017-01-21T01:12:32.093Z,0
2017-01-21T01:13:43.496Z,0
2017-01-21T01:14:54.894Z,0
2017-01-21T01:16:06.339Z,0
2017-01-21T01:17:17.750Z,0
2017-01-21T01:18:29.132Z,0
2017-01-21T01:19:40.519Z,0
2017-01-21T01:20:51.913Z,0
2017-01-21T01:22:03.564Z,0
2017-01-21T01:23:14.957Z,0
2017-01-21T01:24:26.352Z,0
2017-01-21T01:25:37.939Z,0
2017-01-21T01:26:49.541Z,0
2017-01-21T01:28:01.188Z,0
2017-01-21T01:29:12.589Z,0
2017-01-21T01:30:23.980Z,0
2017-01-21T01:31:35.599Z,0
2017-01-21T01:32:46.995Z,0
2017-01-21T01:33:58.441Z,0
2017-01-21T01:35:09.831Z,0
2017-01-21T01:36:21.230Z,0
2017-01-21T01:37:32.622Z,0
2017-01-21T01:38:44.013Z,0
2017-01-21T01:39:55.449Z,0
2017-01-21T01:41:06.844Z,0
2017-01-21T01:42:18.264Z,0
2017-01-21T01:43:29.668Z,0
2017-01-21T01:44:41.062Z,0
2017-01-21T01:45:52.524Z,0
2017-01-21T01:47:03.927Z,0
2017-01-21T01:48:15.339Z,0
2017-01-21T01:49:26.736Z,0
2017-01-21T01:50:38.335Z,0
2017-01-21T01:51:49.783Z,0
2017-01-21T01:53:01.179Z,0
2017-01-21T01:54:12.564Z,0
2017-01-21T01:55:23.964Z,0
2017-01-21T01:56:35.565Z,0
2017-01-21T01:57:47.010Z,0
2017-01-21T01:58:58.398Z,0
2017-01-21T02:00:09.793Z,0
2017-01-21T02:01:21.205Z,0
2017-01-21T02:02:32.601Z,0
2017-01-21T02:03:44.048Z,0
2017-01-21T02:04:55.442Z,0
2017-01-21T02:06:06.830Z,0
2017-01-21T02:07:18.224Z,0
2017-01-21T02:08:29.624Z,0
2017-01-21T02:09:41.070Z,0
2017-01-21T02:10:52.472Z,0
2017-01-21T02:12:04.064Z,0
2017-01-21T02:13:15.483Z,0
2017-01-21T02:14:26.870Z,0
2017-01-21T02:15:38.516Z,0
2017-01-21T02:16:49.910Z,0
2017-01-21T02:18:01.309Z,0
2017-01-21T02:19:12.702Z,0
2017-01-21T02:20:24.100Z,0
2017-01-21T02:21:35.543Z,0
2017-01-21T02:22:46.941Z,0
2017-01-21T02:23:58.536Z,0
2017-01-21T02:25:09.931Z,0
2017-01-21T02:26:21.330Z,0
2017-01-21T02:27:32.775Z,0
2017-01-21T02:28:44.175Z,0
2017-01-21T02:29:55.575Z,0
2017-01-21T02:31:06.967Z,0
2017-01-21T02:32:18.561Z,0
2017-01-21T02:33:30.013Z,0
2017-01-21T02:34:41.608Z,0
2017-01-21T02:35:52.997Z,0
2017-01-21T02:37:04.589Z,0
2017-01-21T02:38:15.979Z,0
2017-01-21T02:39:27.610Z,0
2017-01-21T02:40:39.212Z,0
2017-01-21T02:41:50.613Z,0
2017-01-21T02:43:02.206Z,0
2017-01-21T02:44:13.603Z,0
2017-01-21T02:45:25.050Z,0
2017-01-21T02:46:36.643Z,0
2017-01-21T02:47:48.039Z,0
2017-01-21T02:48:59.436Z,0
2017-01-21T02:50:10.830Z,0
2017-01-21T02:51:22.673Z,0
2017-01-21T02:52:34.071Z,0
2017-01-21T02:53:45.461Z,0
2017-01-21T02:54:56.855Z,0
2017-01-21T02:56:08.249Z,0
2017-01-21T02:57:19.696Z,0
2017-01-21T02:58:31.096Z,0
2017-01-21T02:59:42.883Z,0
2017-01-21T03:00:54.287Z,0
2017-01-21T03:02:05.674Z,0
2017-01-21T03:03:17.106Z,0
2017-01-21T03:04:28.508Z,0
2017-01-21T03:05:39.924Z,0
2017-01-21T03:06:51.320Z,0
2017-01-21T03:08:02.725Z,0
2017-01-21T03:09:14.172Z,0
2017-01-21T03:10:25.774Z,0
2017-01-21T03:11:37.178Z,0
2017-01-21T03:12:48.576Z,0
2017-01-21T03:13:59.979Z,0
2017-01-21T03:15:11.430Z,0
2017-01-21T03:16:22.819Z,0
2017-01-21T03:17:34.217Z,0
2017-01-21T03:18:45.613Z,0
2017-01-21T03:19:57.008Z,0
2017-01-21T03:21:08.452Z,0
2017-01-21T03:22:19.843Z,0
2017-01-21T03:23:31.240Z,0
2017-01-21T03:24:42.633Z,0
2017-01-21T03:25:54.023Z,0
2017-01-21T03:27:05.470Z,0
2017-01-21T03:28:16.871Z,0
2017-01-21T03:29:28.254Z,0
2017-01-21T03:30:39.643Z,0
2017-01-21T03:31:51.229Z,0
2017-01-21T03:33:02.671Z,0
2017-01-21T03:34:14.074Z,0
2017-01-21T03:35:25.483Z,0
2017-01-21T03:36:36.875Z,0
2017-01-21T03:37:48.273Z,0
2017-01-21T03:38:59.718Z,0
2017-01-21T03:40:11.121Z,0
2017-01-21T03:41:22.511Z,0
2017-01-21T03:42:33.906Z,0
2017-01-21T03:43:45.318Z,0
2017-01-21T03:44:56.760Z,0
2017-01-21T03:46:08.174Z,0
2017-01-21T03:47:19.573Z,0
2017-01-21T03:48:30.966Z,0
2017-01-21T03:49:42.353Z,0
2017-01-21T03:50:53.802Z,0
2017-01-21T03:52:05.191Z,0
2017-01-21T03:53:16.572Z,0
2017-01-21T03:54:27.971Z,0
2017-01-21T03:55:39.361Z,0
2017-01-21T03:56:50.802Z,0
2017-01-21T03:58:02.393Z,0
2017-01-21T03:59:13.790Z,0
2017-01-21T04:00:25.186Z,0
2017-01-21T04:01:36.580Z,0
2017-01-21T04:02:48.026Z,0
2017-01-21T04:03:59.419Z,0
2017-01-21T04:05:10.802Z,0
2017-01-21T04:06:22.200Z,0
2017-01-21T04:07:33.793Z,0
2017-01-21T04:08:45.247Z,0
2017-01-21T04:09:56.648Z,0
2017-01-21T04:11:08.070Z,0
2017-01-21T04:12:19.461Z,0
2017-01-21T04:13:30.860Z,0
2017-01-21T04:14:42.303Z,0
2017-01-21T04:15:53.699Z,0
2017-01-21T04:17:05.290Z,0
2017-01-21T04:18:16.882Z,0
2017-01-21T04:19:28.279Z,0
2017-01-21T04:20:39.918Z,0
2017-01-21T04:21:51.505Z,0
2017-01-21T04:23:02.901Z,0
2017-01-21T04:24:14.301Z,0
2017-01-21T04:25:25.696Z,0
2017-01-21T04:26:37.347Z,0
2017-01-21T04:27:48.735Z,0
2017-01-21T04:29:00.130Z,0
2017-01-21T04:30:11.924Z,0
2017-01-21T04:31:23.311Z,0
2017-01-21T04:32:34.959Z,0
2017-01-21T04:33:46.350Z,0
2017-01-21T04:34:57.745Z,0
2017-01-21T04:36:09.156Z,0
2017-01-21T04:37:20.545Z,0
2017-01-21T04:38:31.995Z,0
2017-01-21T04:39:43.784Z,0
2017-01-21T04:40:55.179Z,0
2017-01-21T04:42:06.578Z,0
2017-01-21T04:43:17.972Z,0
2017-01-21T04:44:29.406Z,0
2017-01-21T04:45:40.798Z,0
2017-01-21T04:46:52.192Z,0
2017-01-21T04:48:03.586Z,0
2017-01-21T04:49:15.004Z,0
2017-01-21T04:50:26.449Z,0
2017-01-21T04:51:37.839Z,0
2017-01-21T04:52:49.233Z,0
2017-01-21T04:54:00.644Z,0
2017-01-21T04:55:12.036Z,0
2017-01-21T04:56:23.476Z,0
2017-01-21T04:57:34.875Z,0
2017-01-21T04:58:46.266Z,0
2017-01-21T04:59:57.659Z,0
2017-01-21T05:01:09.064Z,0
2017-01-21T05:02:20.513Z,0
2017-01-21T05:03:31.912Z,0
2017-01-21T05:04:43.303Z,0
2017-01-21T05:05:54.898Z,0
2017-01-21T05:07:06.288Z,0
2017-01-21T05:08:17.724Z,0
2017-01-21T05:09:29.319Z,0
2017-01-21T05:10:40.914Z,0
2017-01-21T05:11:52.308Z,0
2017-01-21T05:13:03.698Z,0
2017-01-21T05:14:15.141Z,0
2017-01-21T05:15:26.534Z,0
2017-01-21T05:16:37.930Z,0
2017-01-21T05:17:49.542Z,0
2017-01-21T05:19:00.938Z,0
2017-01-21T05:20:12.384Z,0
2017-01-21T05:21:23.776Z,0
2017-01-21T05:22:35.191Z,0
2017-01-21T05:23:46.583Z,0
2017-01-21T05:24:57.976Z,0
2017-01-21T05:26:09.423Z,0
2017-01-21T05:27:20.814Z,0
2017-01-21T05:28:32.208Z,0
2017-01-21T05:29:43.828Z,0
2017-01-21T05:30:55.221Z,0
2017-01-21T05:32:06.657Z,0
2017-01-21T05:33:18.047Z,0
2017-01-21T05:34:29.441Z,0
2017-01-21T05:35:40.829Z,0
2017-01-21T05:36:52.419Z,0
2017-01-21T05:38:03.863Z,0
2017-01-21T05:39:15.252Z,0
2017-01-21T05:40:26.645Z,0
2017-01-21T05:41:38.040Z,0
2017-01-21T05:42:49.437Z,0
2017-01-21T05:44:00.877Z,0
2017-01-21T05:45:12.268Z,0
2017-01-21T05:46:23.655Z,0
2017-01-21T05:47:35.042Z,0
2017-01-21T05:48:46.430Z,0
2017-01-21T05:49:57.875Z,0
2017-01-21T05:51:09.262Z,0
2017-01-21T05:52:20.658Z,0
2017-01-21T05:53:32.247Z,0
2017-01-21T05:54:43.851Z,0
2017-01-21T05:55:55.296Z,0
2017-01-21T05:57:06.692Z,0
2017-01-21T05:58:18.085Z,0
2017-01-21T05:59:29.478Z,0
2017-01-21T06:00:41.074Z,0
2017-01-21T06:01:52.516Z,0
2017-01-21T06:03:04.113Z,0
2017-01-21T06:04:15.507Z,0
2017-01-21T06:05:26.901Z,0
2017-01-21T06:06:38.301Z,0
2017-01-21T06:07:49.946Z,0
2017-01-21T06:09:01.339Z,0
2017-01-21T06:10:12.727Z,0
2017-01-21T06:11:24.319Z,0
2017-01-21T06:12:35.711Z,0
2017-01-21T06:13:47.153Z,0
2017-01-21T06:14:58.547Z,0
2017-01-21T06:16:10.138Z,0
2017-01-21T06:17:21.536Z,0
2017-01-21T06:18:32.938Z,0
2017-01-21T06:19:44.412Z,0
2017-01-21T06:20:55.815Z,0
2017-01-21T06:22:07.212Z,0
2017-01-21T06:23:18.598Z,0
2017-01-21T06:24:30.191Z,0
2017-01-21T06:25:41.632Z,0
2017-01-21T06:26:53.027Z,0
2017-01-21T06:28:04.415Z,0
2017-01-21T06:29:15.815Z,0
2017-01-21T06:30:27.203Z,0
2017-01-21T06:31:38.639Z,0
2017-01-21T06:32:50.032Z,0
2017-01-21T06:34:01.426Z,0
2017-01-21T06:35:12.815Z,0
2017-01-21T06:36:24.210Z,0
2017-01-21T06:37:35.651Z,0
2017-01-21T06:38:47.045Z,4
2017-01-21T06:39:58.441Z,0
2017-01-21T06:41:09.825Z,0
2017-01-21T06:42:21.218Z,4
2017-01-21T06:43:32.652Z,0
2017-01-21T06:44:44.048Z,4
2017-01-21T06:45:55.451Z,4
2017-01-21T06:47:06.844Z,4
2017-01-21T06:48:18.241Z,4
2017-01-21T06:49:29.688Z,8
2017-01-21T06:50:41.079Z,8
2017-01-21T06:51:52.516Z,12
2017-01-21T06:53:03.913Z,8
2017-01-21T06:54:15.301Z,16
2017-01-21T06:55:26.746Z,16
2017-01-21T06:56:38.141Z,20
2017-01-21T06:57:49.542Z,24
2017-01-21T06:59:00.929Z,32
2017-01-21T07:00:12.317Z,36
2017-01-21T07:01:23.766Z,40
2017-01-21T07:02:35.155Z,48
2017-01-21T07:03:46.762Z,60
2017-01-21T07:04:58.156Z,64
2017-01-21T07:06:09.758Z,76
2017-01-21T07:07:21.408Z,92
2017-01-21T07:08:32.815Z,104
2017-01-21T07:09:44.218Z,120
2017-01-21T07:10:55.616Z,136
2017-01-21T07:12:07.008Z,152
2017-01-21T07:13:18.453Z,172
2017-01-21T07:14:29.840Z,192
2017-01-21T07:15:41.231Z,216
2017-01-21T07:16:52.628Z,240
2017-01-21T07:18:04.012Z,264
2017-01-21T07:19:15.856Z,296
2017-01-21T07:20:27.259Z,328
2017-01-21T07:21:38.654Z,356
2017-01-21T07:22:50.253Z,388
2017-01-21T07:24:01.645Z,420
2017-01-21T07:25:13.093Z,460
2017-01-21T07:26:24.693Z,504
2017-01-21T07:27:36.089Z,548
2017-01-21T07:28:47.482Z,596
2017-01-21T07:29:58.871Z,644
2017-01-21T07:31:10.309Z,700
2017-01-21T07:32:21.702Z,756
2017-01-21T07:33:33.104Z,816
2017-01-21T07:34:44.507Z,876
2017-01-21T07:35:55.904Z,940
2017-01-21T07:37:07.347Z,1004
2017-01-21T07:38:18.940Z,1072
2017-01-21T07:39:30.337Z,1136
2017-01-21T07:40:41.727Z,1204
2017-01-21T07:41:53.130Z,1268
2017-01-21T07:43:04.575Z,1348
2017-01-21T07:44:16.171Z,1440
2017-01-21T07:45:27.561Z,1520
2017-01-21T07:46:38.958Z,1596
2017-01-21T07:47:50.352Z,1688
2017-01-21T07:49:01.754Z,1788
2017-01-21T07:50:13.141Z,1884
2017-01-21T07:51:24.539Z,1980
2017-01-21T07:52:35.942Z,2072
2017-01-21T07:53:47.382Z,2160
2017-01-21T07:54:58.773Z,2260
2017-01-21T07:56:10.170Z,2352
2017-01-21T07:57:21.565Z,2440
2017-01-21T07:58:32.964Z,2876
2017-01-21T07:59:44.404Z,3448
2017-01-21T08:00:55.799Z,2808
2017-01-21T08:02:07.194Z,2812
2017-01-21T08:03:18.786Z,2996
2017-01-21T08:04:30.384Z,3200
2017-01-21T08:05:42.231Z,3500
2017-01-21T08:06:54.032Z,4300
2017-01-21T08:08:05.427Z,4508
2017-01-21T08:09:17.027Z,5460
2017-01-21T08:10:28.431Z,5920
2017-01-21T08:11:39.878Z,5380
2017-01-21T08:12:51.275Z,6516
2017-01-21T08:14:02.669Z,7996
2017-01-21T08:15:14.085Z,9276
2017-01-21T08:16:25.696Z,10388
2017-01-21T08:17:37.146Z,15040
2017-01-21T08:18:48.745Z,14144
2017-01-21T08:20:00.136Z,7512
2017-01-21T08:21:11.528Z,5676
2017-01-21T08:22:22.927Z,7596
2017-01-21T08:23:34.574Z,8704
2017-01-21T08:24:45.973Z,6440
2017-01-21T08:25:57.370Z,5596
2017-01-21T08:27:08.766Z,4724
2017-01-21T08:28:20.161Z,5904
2017-01-21T08:29:31.809Z,7064
2017-01-21T08:30:43.205Z,9444
2017-01-21T08:31:54.601Z,12584
2017-01-21T08:33:05.997Z,11932
2017-01-21T08:34:17.586Z,11296
2017-01-21T08:35:29.035Z,12460
2017-01-21T08:36:40.426Z,12700
2017-01-21T08:37:51.819Z,12320
2017-01-21T08:39:03.212Z,12716
2017-01-21T08:40:14.606Z,11476
2017-01-21T08:41:26.071Z,12476
2017-01-21T08:42:37.466Z,13416
2017-01-21T08:43:49.269Z,15232
2017-01-21T08:45:00.667Z,17792
2017-01-21T08:46:12.069Z,21824
2017-01-21T08:47:23.518Z,22688
2017-01-21T08:48:35.147Z,25504
2017-01-21T08:49:46.542Z,25184
2017-01-21T08:50:57.937Z,19200
2017-01-21T08:52:09.365Z,12588
2017-01-21T08:53:20.832Z,8576
2017-01-21T08:54:32.227Z,8404
2017-01-21T08:55:43.624Z,22080
2017-01-21T08:56:55.230Z,26016
2017-01-21T08:58:06.618Z,27648
2017-01-21T08:59:18.272Z,25024
2017-01-21T09:00:29.690Z,27520
2017-01-21T09:01:41.117Z,36064
2017-01-21T09:02:52.521Z,42720
2017-01-21T09:04:03.918Z,43712
2017-01-21T09:05:15.573Z,39008
2017-01-21T09:06:26.978Z,35072
2017-01-21T09:07:38.382Z,39264
2017-01-21T09:08:49.782Z,40672
2017-01-21T09:10:01.180Z,37664
2017-01-21T09:11:12.635Z,31840
2017-01-21T09:12:24.047Z,29664
2017-01-21T09:13:35.449Z,28032
2017-01-21T09:14:46.853Z,37152
2017-01-21T09:15:58.257Z,48672
2017-01-21T09:17:09.709Z,53056
2017-01-21T09:18:21.108Z,50944
2017-01-21T09:19:32.513Z,51616
2017-01-21T09:20:43.916Z,46272
2017-01-21T09:21:55.318Z,42592
2017-01-21T09:23:06.784Z,49792
2017-01-21T09:24:18.195Z,60864
2017-01-21T09:25:29.599Z,60576
2017-01-21T09:26:41.013Z,62208
2017-01-21T09:27:52.449Z,65504
2017-01-21T09:29:03.908Z,67488
2017-01-21T09:30:15.314Z,68768
2017-01-21T09:31:26.730Z,69408
2017-01-21T09:32:38.150Z,68896
2017-01-21T09:33:49.561Z,68320
2017-01-21T09:35:01.025Z,68832
2017-01-21T09:36:12.434Z,68896
2017-01-21T09:37:24.042Z,70240
2017-01-21T09:38:35.655Z,71840
2017-01-21T09:39:47.062Z,71328
2017-01-21T09:40:58.927Z,70304
2017-01-21T09:42:10.540Z,69024
2017-01-21T09:43:21.947Z,69088
2017-01-21T09:44:33.361Z,68320
2017-01-21T09:45:44.778Z,69856
2017-01-21T09:46:56.261Z,72000
2017-01-21T09:48:07.686Z,71136
2017-01-21T09:49:19.096Z,68832
2017-01-21T09:50:30.719Z,71456
2017-01-21T09:51:42.129Z,75168
2017-01-21T09:52:53.585Z,75648
2017-01-21T09:54:05.004Z,78336
2017-01-21T09:55:16.422Z,78368
2017-01-21T09:56:28.035Z,74016
2017-01-21T09:57:39.849Z,71840
2017-01-21T09:58:51.304Z,71488
2017-01-21T10:00:02.731Z,70400
2017-01-21T10:01:14.140Z,68032
2017-01-21T10:02:25.758Z,67936
2017-01-21T10:03:37.176Z,68768
2017-01-21T10:04:48.651Z,68704
2017-01-21T10:06:00.269Z,68032
2017-01-21T10:07:11.692Z,67840
2017-01-21T10:08:23.315Z,65536
2017-01-21T10:09:34.746Z,62592
2017-01-21T10:10:46.204Z,62784
2017-01-21T10:11:57.622Z,62624
2017-01-21T10:13:09.039Z,63264
2017-01-21T10:14:20.459Z,61952
2017-01-21T10:15:32.073Z,61568
2017-01-21T10:16:43.538Z,58592
2017-01-21T10:17:54.956Z,58976
2017-01-21T10:19:06.575Z,59872
2017-01-21T10:20:17.983Z,59104
2017-01-21T10:21:29.400Z,58272
2017-01-21T10:22:40.866Z,61024
2017-01-21T10:23:52.286Z,61792
2017-01-21T10:25:03.704Z,60000
2017-01-21T10:26:15.111Z,58880
2017-01-21T10:27:26.731Z,59392
2017-01-21T10:28:38.210Z,64640
2017-01-21T10:29:50.035Z,60896
2017-01-21T10:31:01.452Z,57632
2017-01-21T10:32:12.863Z,58912
2017-01-21T10:33:24.492Z,59584
2017-01-21T10:34:35.956Z,59648
2017-01-21T10:35:47.406Z,60352
2017-01-21T10:36:58.825Z,60384
2017-01-21T10:38:10.238Z,60000
2017-01-21T10:39:21.654Z,59232
2017-01-21T10:40:33.125Z,60096
2017-01-21T10:41:44.547Z,62528
2017-01-21T10:42:55.969Z,61440
2017-01-21T10:44:07.394Z,60960
2017-01-21T10:45:18.814Z,60672
2017-01-21T10:46:30.479Z,58208
2017-01-21T10:47:41.889Z,57120
2017-01-21T10:48:53.314Z,57408
2017-01-21T10:50:04.734Z,56640
2017-01-21T10:51:16.347Z,55296
2017-01-21T10:52:27.821Z,55808
2017-01-21T10:53:39.231Z,55136
2017-01-21T10:54:50.649Z,52192
2017-01-21T10:56:02.270Z,51744
2017-01-21T10:57:13.692Z,52992
2017-01-21T10:58:25.163Z,51648
2017-01-21T10:59:36.591Z,52096
2017-01-21T11:00:48.015Z,52928
2017-01-21T11:01:59.433Z,51232
2017-01-21T11:03:11.052Z,52672
2017-01-21T11:04:22.713Z,52064
2017-01-21T11:05:34.330Z,51712
2017-01-21T11:06:45.751Z,51968
2017-01-21T11:07:57.165Z,53120
2017-01-21T11:09:08.585Z,53152
2017-01-21T11:10:20.041Z,52128
2017-01-21T11:11:31.478Z,51808
2017-01-21T11:12:42.888Z,52192
2017-01-21T11:13:54.507Z,52512
2017-01-21T11:15:05.933Z,52096
2017-01-21T11:16:17.393Z,49920
2017-01-21T11:17:28.834Z,47616
2017-01-21T11:18:40.481Z,50368
2017-01-21T11:19:51.904Z,51552
2017-01-21T11:21:03.313Z,53664
2017-01-21T11:22:14.783Z,51008
2017-01-21T11:23:26.399Z,46688
2017-01-21T11:24:38.018Z,44960
2017-01-21T11:25:49.441Z,39232
2017-01-21T11:27:01.073Z,39808
2017-01-21T11:28:12.546Z,47136
2017-01-21T11:29:23.962Z,43712
2017-01-21T11:30:35.367Z,41600
2017-01-21T11:31:46.778Z,46432
2017-01-21T11:32:58.185Z,46304
2017-01-21T11:34:09.852Z,41152
2017-01-21T11:35:21.262Z,34528
2017-01-21T11:36:32.671Z,24672
2017-01-21T11:37:44.091Z,13812
2017-01-21T11:38:55.506Z,22560
2017-01-21T11:40:06.979Z,27008
2017-01-21T11:41:18.389Z,24608
2017-01-21T11:42:29.797Z,19520
2017-01-21T11:43:41.212Z,21152
2017-01-21T11:44:52.627Z,24608
2017-01-21T11:46:04.086Z,32896
2017-01-21T11:47:15.688Z,36800
2017-01-21T11:48:27.113Z,28960
2017-01-21T11:49:38.515Z,13960
2017-01-21T11:50:49.920Z,13492
2017-01-21T11:52:01.576Z,19296
2017-01-21T11:53:12.982Z,33248
2017-01-21T11:54:24.388Z,29888
2017-01-21T11:55:36.004Z,24480
2017-01-21T11:56:47.609Z,25760
2017-01-21T11:57:59.068Z,31072
2017-01-21T11:59:10.471Z,31232
2017-01-21T12:00:21.885Z,38176
2017-01-21T12:01:33.286Z,38976
2017-01-21T12:02:44.699Z,36928
2017-01-21T12:03:56.168Z,36992
2017-01-21T12:05:07.779Z,36768
2017-01-21T12:06:19.184Z,38048
2017-01-21T12:07:30.590Z,40000
2017-01-21T12:08:41.998Z,43296
2017-01-21T12:09:53.494Z,39904
2017-01-21T12:11:04.925Z,43360
2017-01-21T12:12:16.334Z,40256
2017-01-21T12:13:27.748Z,26240
2017-01-21T12:14:39.354Z,21152
2017-01-21T12:15:50.816Z,24928
2017-01-21T12:17:02.432Z,31552
2017-01-21T12:18:14.046Z,18080
2017-01-21T12:19:25.450Z,9064
2017-01-21T12:20:36.870Z,21952
2017-01-21T12:21:48.348Z,17248
2017-01-21T12:22:59.765Z,13004
2017-01-21T12:24:11.180Z,20960
2017-01-21T12:25:22.592Z,14920
2017-01-21T12:26:33.992Z,25248
2017-01-21T12:27:45.446Z,25152
2017-01-21T12:28:56.856Z,31456
2017-01-21T12:30:08.466Z,30400
2017-01-21T12:31:19.872Z,22848
2017-01-21T12:32:31.286Z,21952
2017-01-21T12:33:42.741Z,23968
2017-01-21T12:34:54.141Z,24288
2017-01-21T12:36:05.546Z,26464
2017-01-21T12:37:16.961Z,26816
2017-01-21T12:38:28.372Z,13980
2017-01-21T12:39:39.826Z,13916
2017-01-21T12:40:51.636Z,27264
2017-01-21T12:42:03.060Z,27328
2017-01-21T12:43:14.674Z,26464
2017-01-21T12:44:26.081Z,19200
2017-01-21T12:45:37.542Z,12852
2017-01-21T12:46:48.951Z,13584
2017-01-21T12:48:00.365Z,24672
2017-01-21T12:49:11.767Z,26944
2017-01-21T12:50:23.376Z,26208
2017-01-21T12:51:34.833Z,25952
2017-01-21T12:52:46.242Z,24448
2017-01-21T12:53:57.642Z,24160
2017-01-21T12:55:09.051Z,24928
2017-01-21T12:56:20.457Z,24576
2017-01-21T12:57:31.911Z,19520
2017-01-21T12:58:43.325Z,17888
2017-01-21T12:59:54.931Z,21248
2017-01-21T13:01:06.336Z,18752
2017-01-21T13:02:17.737Z,17728
2017-01-21T13:03:29.197Z,16224
2017-01-21T13:04:40.625Z,18016
2017-01-21T13:05:52.030Z,14828
2017-01-21T13:07:03.639Z,12468
2017-01-21T13:08:15.275Z,17312
2017-01-21T13:09:26.733Z,17184
2017-01-21T13:10:38.138Z,14804
2017-01-21T13:11:49.551Z,13776
2017-01-21T13:13:00.960Z,11068
2017-01-21T13:14:12.368Z,11228
2017-01-21T13:15:23.825Z,10684
2017-01-21T13:16:35.226Z,9112
2017-01-21T13:17:46.631Z,8284
2017-01-21T13:18:58.040Z,9016
2017-01-21T13:20:09.447Z,7940
2017-01-21T13:21:20.909Z,6824
2017-01-21T13:22:32.322Z,9360
2017-01-21T13:23:43.719Z,8912
2017-01-21T13:24:55.325Z,6544
2017-01-21T13:26:06.728Z,7568
2017-01-21T13:27:18.390Z,7672
2017-01-21T13:28:29.803Z,9008
2017-01-21T13:29:41.215Z,10072
2017-01-21T13:30:52.630Z,10548
2017-01-21T13:32:04.032Z,10868
2017-01-21T13:33:15.688Z,11512
2017-01-21T13:34:27.123Z,10340
2017-01-21T13:35:38.728Z,9440
2017-01-21T13:36:50.133Z,7632
2017-01-21T13:38:01.537Z,8960
2017-01-21T13:39:13.001Z,8368
2017-01-21T13:40:24.413Z,5736
2017-01-21T13:41:36.019Z,8164
2017-01-21T13:42:47.425Z,8700
2017-01-21T13:43:58.832Z,8108
2017-01-21T13:45:10.490Z,7676
2017-01-21T13:46:21.888Z,7548
2017-01-21T13:47:33.295Z,6776
2017-01-21T13:48:44.701Z,6584
2017-01-21T13:49:56.305Z,6756
2017-01-21T13:51:07.949Z,6128
2017-01-21T13:52:19.355Z,4792
2017-01-21T13:53:30.758Z,4632
2017-01-21T13:54:42.171Z,5384
2017-01-21T13:55:53.776Z,4860
2017-01-21T13:57:05.225Z,5000
2017-01-21T13:58:16.632Z,5920
2017-01-21T13:59:28.041Z,5504
2017-01-21T14:00:39.447Z,4528
2017-01-21T14:01:50.853Z,3448
2017-01-21T14:03:02.311Z,3380
2017-01-21T14:04:13.719Z,3356
2017-01-21T14:05:25.124Z,3336
2017-01-21T14:06:36.523Z,3696
2017-01-21T14:07:47.952Z,4296
2017-01-21T14:08:59.404Z,4280
2017-01-21T14:10:10.809Z,4148
2017-01-21T14:11:22.221Z,4036
2017-01-21T14:12:33.624Z,4148
2017-01-21T14:13:45.031Z,4196
2017-01-21T14:14:56.478Z,4016
2017-01-21T14:16:07.879Z,3636
2017-01-21T14:17:19.278Z,3616
2017-01-21T14:18:30.882Z,3872
2017-01-21T14:19:42.287Z,3744
2017-01-21T14:20:53.739Z,3572
2017-01-21T14:22:05.142Z,3260
2017-01-21T14:23:16.749Z,2976
2017-01-21T14:24:28.153Z,2936
2017-01-21T14:25:39.560Z,2908
2017-01-21T14:26:51.233Z,2872
2017-01-21T14:28:02.655Z,2908
2017-01-21T14:29:14.060Z,2944
2017-01-21T14:30:25.462Z,2952
2017-01-21T14:31:36.859Z,2884
2017-01-21T14:32:48.324Z,2852
2017-01-21T14:33:59.729Z,2824
2017-01-21T14:35:11.131Z,2756
2017-01-21T14:36:22.528Z,2684
2017-01-21T14:37:33.932Z,2644
2017-01-21T14:38:45.601Z,2608
2017-01-21T14:39:57.005Z,2572
2017-01-21T14:41:08.410Z,2544
2017-01-21T14:42:19.815Z,2512
2017-01-21T14:43:31.423Z,2480
2017-01-21T14:44:43.072Z,2444
2017-01-21T14:45:54.672Z,2412
2017-01-21T14:47:06.077Z,2380
2017-01-21T14:48:17.472Z,2348
2017-01-21T14:49:28.880Z,2320
2017-01-21T14:50:40.327Z,2288
2017-01-21T14:51:51.932Z,2252
2017-01-21T14:53:03.329Z,2216
2017-01-21T14:54:14.738Z,2184
2017-01-21T14:55:26.138Z,2152
2017-01-21T14:56:37.583Z,2124
2017-01-21T14:57:48.984Z,2092
2017-01-21T14:59:00.590Z,2060
2017-01-21T15:00:11.995Z,2024
2017-01-21T15:01:23.397Z,1988
2017-01-21T15:02:35.258Z,1956
2017-01-21T15:03:46.659Z,1920
2017-01-21T15:04:58.061Z,1888
2017-01-21T15:06:09.457Z,1848
2017-01-21T15:07:20.849Z,1816
2017-01-21T15:08:32.503Z,1780
2017-01-21T15:09:43.894Z,1744
2017-01-21T15:10:55.299Z,1704
2017-01-21T15:12:06.709Z,1664
2017-01-21T15:13:18.108Z,1624
2017-01-21T15:14:29.759Z,1584
2017-01-21T15:15:41.155Z,1548
2017-01-21T15:16:52.759Z,1508
2017-01-21T15:18:04.169Z,1468
2017-01-21T15:19:15.566Z,1428
2017-01-21T15:20:27.211Z,1384
2017-01-21T15:21:38.606Z,1348
2017-01-21T15:22:50.005Z,1304
2017-01-21T15:24:01.405Z,1264
2017-01-21T15:25:12.812Z,1220
2017-01-21T15:26:24.269Z,1180
2017-01-21T15:27:35.864Z,1136
2017-01-21T15:28:47.271Z,1088
2017-01-21T15:29:58.671Z,1040
2017-01-21T15:31:10.076Z,1000
2017-01-21T15:32:21.512Z,956
2017-01-21T15:33:33.116Z,912
2017-01-21T15:34:44.523Z,872
2017-01-21T15:35:55.918Z,832
2017-01-21T15:37:07.519Z,792
2017-01-21T15:38:18.959Z,752
2017-01-21T15:39:30.358Z,712
2017-01-21T15:40:41.755Z,672
2017-01-21T15:41:53.154Z,632
2017-01-21T15:43:04.549Z,592
2017-01-21T15:44:16.201Z,556
2017-01-21T15:45:27.802Z,524
2017-01-21T15:46:39.205Z,488
2017-01-21T15:47:50.606Z,456
2017-01-21T15:49:02.199Z,424
2017-01-21T15:50:13.643Z,396
2017-01-21T15:51:25.046Z,364
2017-01-21T15:52:36.448Z,336
2017-01-21T15:53:47.847Z,308
2017-01-21T15:54:59.243Z,284
2017-01-21T15:56:10.692Z,260
2017-01-21T15:57:22.088Z,232
2017-01-21T15:58:33.484Z,208
2017-01-21T15:59:44.884Z,192
2017-01-21T16:00:56.495Z,172
2017-01-21T16:02:07.948Z,152
2017-01-21T16:03:19.354Z,136
2017-01-21T16:04:30.945Z,120
2017-01-21T16:05:42.344Z,104
2017-01-21T16:06:53.738Z,92
2017-01-21T16:08:05.194Z,80
2017-01-21T16:09:16.609Z,68
2017-01-21T16:10:28.008Z,60
2017-01-21T16:11:39.409Z,52
2017-01-21T16:12:50.818Z,44
2017-01-21T16:14:02.267Z,36
2017-01-21T16:15:13.674Z,32
2017-01-21T16:16:25.078Z,24
2017-01-21T16:17:36.476Z,24
2017-01-21T16:18:48.077Z,20
2017-01-21T16:19:59.543Z,12
2017-01-21T16:21:10.945Z,12
2017-01-21T16:22:22.343Z,12
2017-01-21T16:23:33.737Z,8
2017-01-21T16:24:45.137Z,8
2017-01-21T16:25:56.586Z,4
2017-01-21T16:27:08.173Z,4
2017-01-21T16:28:19.580Z,4